Attività con fini culturali e ricreativi - Codice Fiscale 91122750689  

I bollettini meteorologici codificati usati in aviazione sono chiamati METAR. Contengono in ordine: la località, l'orario dell'osservazione, il vento, la visibilità, la copertura nuvolosa con eventuali fenomeni significativi, la temperatura, il punto di rugiada e la pressione atmosferica.    Scopri come leggerli...
Si riportano di seguito le ultime 90 osservazioni meteorologiche effettuate dall'aeroporto di Pescara.

LIBP 221950Z VRB02KT CAVOK 26/20 Q1014
LIBP 221850Z VRB02KT CAVOK 28/20 Q1014
LIBP 221750Z 05003KT CAVOK 29/20 Q1014
LIBP 221650Z 07006KT CAVOK 30/18 Q1014
LIBP 221550Z 05007KT CAVOK 31/17 Q1014
LIBP 221450Z 04008KT CAVOK 31/15 Q1014
LIBP 221350Z 04008KT 010V070 CAVOK 31/17 Q1014
LIBP 221250Z 04010KT CAVOK 31/17 Q1014
LIBP 221150Z 03009KT 360V080 CAVOK 31/17 Q1014
LIBP 221050Z 04009KT 360V070 CAVOK 30/19 Q1014
LIBP 220950Z 03008KT 330V070 CAVOK 30/19 Q1015
LIBP 220850Z 03008KT 310V070 CAVOK 31/18 Q1014
LIBP 220750Z 01006KT 330V050 CAVOK 31/17 Q1014
LIBP 220650Z 01006KT 340V060 CAVOK 30/17 Q1013
LIBP 220450Z AUTO VRB03KT 9999 FEW180/// 23/20 Q1012
LIBP 220350Z AUTO VRB01KT 9999 BKN160/// 22/20 Q1012
LIBP 220250Z AUTO 34003KT 310V020 9999 BKN180/// BKN240/// 22/20 Q1011
LIBP 220150Z AUTO VRB02KT 9999 NCD 22/20 Q1011
LIBP 220050Z AUTO 23004KT 200V280 9999 NCD 22/20 Q1011
LIBP 212350Z AUTO 24004KT 9999 SCT130/// 23/21 Q1011
LIBP 212250Z AUTO 21003KT 170V300 9999 FEW140/// 23/21 Q1011
LIBP 212150Z VRB01KT CAVOK 24/22 Q1012
LIBP 212050Z VRB01KT CAVOK 26/22 Q1012
LIBP 211950Z 03004KT CAVOK 26/22 Q1012
LIBP 211850Z 03004KT CAVOK 27/22 Q1011
LIBP 211750Z 05005KT CAVOK 28/22 Q1011
LIBP 211650Z 04007KT CAVOK 29/22 Q1011
LIBP 211550Z 05010KT CAVOK 30/21 Q1011
LIBP 211450Z 04009KT CAVOK 31/22 Q1011
LIBP 211350Z 04008KT 360V070 CAVOK 30/21 Q1012
LIBP 211250Z 05008KT CAVOK 30/21 Q1012
LIBP 211150Z 06009KT CAVOK 30/20 Q1013
LIBP 210950Z 06008KT CAVOK 30/20 Q1013
LIBP 210850Z 05006KT 010V080 CAVOK 30/19 Q1013
LIBP 210750Z VRB03KT CAVOK 29/17 Q1013
LIBP 210650Z VRB02KT CAVOK 26/17 Q1013
LIBP 210605Z 21004KT CAVOK 24/17 Q1013
LIBP 210502Z 22003KT CAVOK 21/16 Q1013
LIBP 202050Z 36002KT CAVOK 26/17 Q1012
LIBP 201950Z 01004KT 350V070 CAVOK 27/17 Q1012
LIBP 201850Z 10003KT CAVOK 29/14 Q1012
LIBP 201750Z 09004KT 050V130 CAVOK 30/14 Q1011
LIBP 201650Z 09006KT 060V120 CAVOK 31/16 Q1012
LIBP 201550Z 06007KT 020V090 CAVOK 31/16 Q1012
LIBP 201450Z 06008KT 020V090 CAVOK 31/15 Q1012
LIBP 201350Z 05010KT CAVOK 31/16 Q1012
LIBP 201250Z 06009KT 040V100 CAVOK 31/17 Q1013
LIBP 201150Z 09007KT 040V150 CAVOK 30/15 Q1013
LIBP 201101Z 06009KT CAVOK 31/18 Q1013
LIBP 200850Z 03006KT 360V060 CAVOK 29/16 Q1014
LIBP 200550Z VRB01KT CAVOK 23/15 Q1015
LIBP 200450Z AUTO 25002KT 9999 NCD 20/14 Q1014
LIBP 200350Z AUTO 21004KT 9999 NCD 19/14 Q1014
LIBP 200250Z AUTO 22004KT 9999 NCD 19/14 Q1013
LIBP 200150Z AUTO 22004KT 9999 NCD 20/14 Q1013
LIBP 200050Z AUTO 22006KT 9999 NCD 19/15 Q1014
LIBP 192350Z AUTO 19005KT 9999 NCD 21/14 Q1014
LIBP 192250Z AUTO 20003KT 9999 NCD 21/15 Q1015
LIBP 192150Z AUTO 23004KT 9999 NCD 23/15 Q1015
LIBP 192050Z 22004KT CAVOK 24/18 Q1015
LIBP 191950Z 31003KT CAVOK 25/20 Q1015
LIBP 191850Z 02003KT CAVOK 27/20 Q1015
LIBP 191750Z 04005KT CAVOK 28/20 Q1015
LIBP 191650Z 07003KT 010V110 CAVOK 31/16 Q1015
LIBP 191550Z 06007KT 030V090 CAVOK 31/14 Q1015
LIBP 191450Z 08008KT 060V120 CAVOK 32/12 Q1015
LIBP 191350Z 07009KT 020V100 CAVOK 31/17 Q1016

Fonte: National Oceanic and Atmospheric Administration (NOAA)

Ultimi caricamenti...


MM81824 (15-52) HH-139A Aeronautica Militare e MM81911 (11-12) Guardia Costiera AgustaWestland AW139

 


DRAGO123 (ex EAGLE23 CFS) AB412 Vigili del Fuoco

 


DRAGO123 (ex EAGLE23 CFS) AB412 Vigili del Fuoco

Questo sito non utilizza cookie di profilazione. Il sito utilizza cookie tecnici, di analisi anonima di prima parte e di terze parti per servizi di social network.